createdAt,value
2022-10-13T00:00:47.761Z,98682.97
2022-10-13T00:03:14.823Z,98706.16
2022-10-13T00:05:42.577Z,98682.81
2022-10-13T00:08:09.689Z,98693.88
2022-10-13T00:10:42.074Z,98584.50
2022-10-13T00:13:11.498Z,98701.03
2022-10-13T00:15:43.536Z,98701.63
2022-10-13T00:18:09.952Z,98697.09
2022-10-13T00:20:41.652Z,98692.16
2022-10-13T00:23:08.736Z,98704.63
2022-10-13T00:25:35.194Z,98700.31
2022-10-13T00:28:01.593Z,98712.16
2022-10-13T00:30:34.736Z,98706.63
2022-10-13T00:33:01.230Z,98706.19
2022-10-13T00:35:27.787Z,98710.50
2022-10-13T00:37:54.232Z,98709.47
2022-10-13T00:40:20.636Z,98703.19
2022-10-13T00:42:47.290Z,98661.75
2022-10-13T00:45:27.126Z,98700.88
2022-10-13T00:47:57.833Z,98699.38
2022-10-13T00:50:33.579Z,98698.56
2022-10-13T00:53:02.802Z,98706.38
2022-10-13T00:55:36.046Z,98703.94
2022-10-13T00:58:06.241Z,98686.50
2022-10-13T01:00:34.609Z,98675.63
2022-10-13T01:03:02.095Z,98713.75
2022-10-13T01:05:29.584Z,98707.59
2022-10-13T01:07:57.789Z,98717.00
2022-10-13T01:10:39.839Z,98714.16
2022-10-13T01:13:40.846Z,98715.56
2022-10-13T01:16:33.212Z,98713.09
2022-10-13T01:19:41.147Z,98718.84
2022-10-13T01:22:16.982Z,98715.88
2022-10-13T01:24:59.187Z,98715.00
2022-10-13T01:27:41.836Z,98714.00
2022-10-13T01:30:16.947Z,98704.59
2022-10-13T01:33:01.991Z,98703.34
2022-10-13T01:35:47.301Z,98705.56
2022-10-13T01:38:21.924Z,98702.69
2022-10-13T01:41:32.413Z,98703.91
2022-10-13T01:44:16.143Z,98694.00
2022-10-13T01:46:54.195Z,98703.16
2022-10-13T01:49:25.921Z,98692.72
2022-10-13T01:51:54.992Z,98671.53
2022-10-13T01:54:22.024Z,98698.88
2022-10-13T01:56:53.156Z,98689.91
2022-10-13T01:59:20.087Z,98690.53
2022-10-13T02:02:07.898Z,98690.53
2022-10-13T02:04:43.070Z,98689.66
2022-10-13T02:07:27.227Z,98685.78
2022-10-13T02:10:12.954Z,98683.41
2022-10-13T02:12:55.947Z,98686.97
2022-10-13T02:15:29.750Z,98685.69
2022-10-13T02:18:01.532Z,98676.72
2022-10-13T02:20:28.521Z,98684.47
2022-10-13T02:23:01.170Z,98670.47
2022-10-13T02:25:28.795Z,98664.56
2022-10-13T02:27:57.625Z,98662.63
2022-10-13T02:30:27.534Z,98660.34
2022-10-13T02:32:54.481Z,98659.38
2022-10-13T02:35:21.101Z,98660.00
2022-10-13T02:37:47.503Z,98660.84
2022-10-13T02:40:14.092Z,98646.16
2022-10-13T02:42:40.680Z,98647.56
2022-10-13T02:45:07.981Z,98656.19
2022-10-13T02:47:34.370Z,98650.66
2022-10-13T02:50:04.729Z,98659.69
2022-10-13T02:52:31.260Z,98670.13
2022-10-13T02:54:57.656Z,98659.72
2022-10-13T02:57:24.581Z,98583.31
2022-10-13T02:59:52.109Z,98653.16
2022-10-13T03:02:19.241Z,98637.22
2022-10-13T03:04:47.086Z,98646.19
2022-10-13T03:07:13.460Z,98637.84
2022-10-13T03:09:39.902Z,98649.66
2022-10-13T03:12:06.641Z,98594.53
2022-10-13T03:14:35.272Z,98622.19
2022-10-13T03:17:01.997Z,98627.34
2022-10-13T03:19:28.393Z,98637.50
2022-10-13T03:21:55.144Z,98633.91
2022-10-13T03:24:21.696Z,98630.63
2022-10-13T03:26:48.114Z,98617.84
2022-10-13T03:29:16.921Z,98630.97
2022-10-13T03:31:43.486Z,98632.41
2022-10-13T03:34:12.726Z,98631.34
2022-10-13T03:36:39.340Z,98621.56
2022-10-13T03:39:06.581Z,98632.41
2022-10-13T03:41:33.080Z,98634.19
2022-10-13T03:43:59.520Z,98613.75
2022-10-13T03:46:30.294Z,98636.06
2022-10-13T03:48:57.870Z,98633.84
2022-10-13T03:51:30.298Z,98628.19
2022-10-13T03:53:56.746Z,98482.00
2022-10-13T03:56:25.494Z,98609.72
2022-10-13T03:58:56.549Z,98526.38
2022-10-13T04:01:25.473Z,98626.53
2022-10-13T04:03:52.794Z,98638.44
2022-10-13T04:06:19.484Z,98615.53
2022-10-13T04:08:45.961Z,98609.44
2022-10-13T04:11:14.282Z,98618.97
2022-10-13T04:13:42.871Z,98629.31
2022-10-13T04:16:14.164Z,98616.03
2022-10-13T04:18:44.525Z,98608.91
2022-10-13T04:21:14.618Z,98576.38
2022-10-13T04:23:41.144Z,98597.53
2022-10-13T04:26:14.416Z,98602.63
2022-10-13T04:28:40.897Z,98600.09
2022-10-13T04:31:07.357Z,98604.81
2022-10-13T04:33:34.501Z,98577.28
2022-10-13T04:36:04.481Z,98585.13
2022-10-13T04:38:30.954Z,98608.28
2022-10-13T04:40:57.381Z,98607.28
2022-10-13T04:43:27.787Z,98597.94
2022-10-13T04:46:09.937Z,98584.31
2022-10-13T04:48:36.342Z,98585.00
2022-10-13T04:51:05.276Z,98576.03
2022-10-13T04:53:31.944Z,98573.75
2022-10-13T04:56:04.426Z,98561.81
2022-10-13T04:58:32.401Z,98557.16
2022-10-13T05:01:01.774Z,98517.66
2022-10-13T05:03:28.737Z,98550.84
2022-10-13T05:05:55.119Z,98548.31
2022-10-13T05:08:22.672Z,98558.16
2022-10-13T05:11:01.349Z,98558.97
2022-10-13T05:13:29.541Z,98564.91
2022-10-13T05:15:57.092Z,98541.84
2022-10-13T05:18:24.246Z,98559.06
2022-10-13T05:20:51.791Z,98556.59
2022-10-13T05:23:18.989Z,98551.69
2022-10-13T05:25:46.201Z,98573.03
2022-10-13T05:28:14.527Z,98572.63
2022-10-13T05:30:41.077Z,98575.91
2022-10-13T05:33:07.439Z,98569.16
2022-10-13T05:35:33.858Z,98574.47
2022-10-13T05:38:00.297Z,98565.50
2022-10-13T05:40:28.334Z,98564.44
2022-10-13T05:42:59.766Z,98566.06
2022-10-13T05:45:29.345Z,98581.22
2022-10-13T05:47:55.824Z,98585.47
2022-10-13T05:50:22.320Z,98577.56
2022-10-13T05:52:49.066Z,98587.34
2022-10-13T05:55:17.758Z,98586.13
2022-10-13T05:57:51.717Z,98595.94
2022-10-13T06:00:20.049Z,98542.28
2022-10-13T06:02:51.498Z,98604.13
2022-10-13T06:05:21.464Z,98602.47
2022-10-13T06:07:53.494Z,98597.78
2022-10-13T06:10:20.189Z,98594.88
2022-10-13T06:12:46.926Z,98583.28
2022-10-13T06:15:13.352Z,98578.56
2022-10-13T06:17:39.998Z,98575.25
2022-10-13T06:20:08.769Z,98567.88
2022-10-13T06:22:37.294Z,98568.66
2022-10-13T06:25:06.077Z,98535.69
2022-10-13T06:27:32.883Z,98555.88
2022-10-13T06:29:59.296Z,98498.50
2022-10-13T06:32:25.712Z,98562.63
2022-10-13T06:34:52.349Z,98566.31
2022-10-13T06:37:21.228Z,98540.53
2022-10-13T06:39:51.257Z,98567.56
2022-10-13T06:42:18.641Z,98576.16
2022-10-13T06:44:46.335Z,98568.19
2022-10-13T06:47:12.742Z,98576.78
2022-10-13T06:49:40.242Z,98578.03
2022-10-13T06:52:10.428Z,98574.34
2022-10-13T06:54:37.606Z,98560.03
2022-10-13T06:57:06.581Z,98576.59
2022-10-13T06:59:33.203Z,98571.06
2022-10-13T07:01:59.750Z,98567.59
2022-10-13T07:04:27.868Z,98571.09
2022-10-13T07:06:56.883Z,98573.38
2022-10-13T07:09:23.550Z,98581.72
2022-10-13T07:11:50.258Z,98581.53
2022-10-13T07:14:16.745Z,98582.97
2022-10-13T07:16:43.307Z,98580.50
2022-10-13T07:19:09.834Z,98574.59
2022-10-13T07:21:37.093Z,98572.75
2022-10-13T07:24:04.052Z,98566.84
2022-10-13T07:26:32.412Z,98564.16
2022-10-13T07:28:58.914Z,98563.34
2022-10-13T07:31:25.485Z,98567.84
2022-10-13T07:33:51.993Z,98568.25
2022-10-13T07:36:22.652Z,98564.38
2022-10-13T07:38:50.927Z,98564.19
2022-10-13T07:41:17.462Z,98561.31
2022-10-13T07:43:43.952Z,98550.25
2022-10-13T07:46:13.037Z,98565.81
2022-10-13T07:48:39.858Z,98559.25
2022-10-13T07:51:08.714Z,98563.56
2022-10-13T07:53:35.894Z,98556.59
2022-10-13T07:56:05.121Z,98569.28
2022-10-13T07:58:32.040Z,98572.16
2022-10-13T08:01:00.070Z,98569.88
2022-10-13T08:03:28.303Z,98576.84
2022-10-13T08:05:55.315Z,98573.97
2022-10-13T08:08:22.321Z,98567.84
2022-10-13T08:10:48.829Z,98573.16
2022-10-13T08:13:15.494Z,98543.09
2022-10-13T08:15:43.159Z,98577.66
2022-10-13T08:18:11.887Z,98576.84
2022-10-13T08:20:46.056Z,98578.47
2022-10-13T08:23:13.404Z,98575.44
2022-10-13T08:25:48.126Z,98580.75
2022-10-13T08:28:28.884Z,98583.00
2022-10-13T08:30:59.927Z,98574.19
2022-10-13T08:33:27.156Z,98576.44
2022-10-13T08:35:53.811Z,98563.13
2022-10-13T08:38:21.193Z,98560.47
2022-10-13T08:40:49.366Z,98561.72
2022-10-13T08:43:19.746Z,98549.44
2022-10-13T08:45:49.629Z,98550.25
2022-10-13T08:48:20.041Z,98552.50
2022-10-13T08:50:50.976Z,98545.34
2022-10-13T08:53:28.143Z,98551.66
2022-10-13T08:56:17.566Z,98552.47
2022-10-13T08:58:47.492Z,98549.78
2022-10-13T09:01:16.916Z,98556.75
2022-10-13T09:04:22.441Z,98527.31
2022-10-13T09:06:54.972Z,98563.47
2022-10-13T09:09:21.579Z,98550.81
2022-10-13T09:11:49.927Z,98572.91
2022-10-13T09:14:34.354Z,98550.16
2022-10-13T09:17:17.730Z,98545.03
2022-10-13T09:19:56.807Z,98552.16
2022-10-13T09:22:32.327Z,98545.22
2022-10-13T09:25:08.143Z,98546.41
2022-10-13T09:27:53.201Z,98549.28
2022-10-13T09:30:28.740Z,98545.63
2022-10-13T09:33:04.789Z,98545.22
2022-10-13T09:35:34.238Z,98534.97
2022-10-13T09:38:06.308Z,98555.44
2022-10-13T09:40:33.986Z,98543.34
2022-10-13T09:43:04.044Z,98551.94
2022-10-13T09:45:30.950Z,98554.19
2022-10-13T09:48:01.688Z,98519.19
2022-10-13T09:50:31.857Z,98552.50
2022-10-13T09:53:26.526Z,98546.09
2022-10-13T09:56:08.526Z,98537.91
2022-10-13T09:58:42.147Z,98514.81
2022-10-13T10:01:19.401Z,98531.53
2022-10-13T10:03:46.640Z,98510.69
2022-10-13T10:06:16.880Z,98505.75
2022-10-13T10:09:13.775Z,98541.66
2022-10-13T10:11:50.001Z,98544.59
2022-10-13T10:14:25.382Z,98550.13
2022-10-13T10:17:02.668Z,98544.47
2022-10-13T10:19:47.802Z,98546.22
2022-10-13T10:22:40.152Z,98543.25
2022-10-13T10:25:22.920Z,98521.50
2022-10-13T10:28:04.949Z,98535.09
2022-10-13T10:30:36.965Z,98530.06
2022-10-13T10:33:16.937Z,98515.38
2022-10-13T10:35:58.752Z,98509.81
2022-10-13T10:38:40.574Z,98496.81
2022-10-13T10:41:16.125Z,98505.47
2022-10-13T10:43:53.071Z,98497.69
2022-10-13T10:46:26.354Z,98495.53
2022-10-13T10:48:57.042Z,98492.31
2022-10-13T10:51:28.037Z,98484.50
2022-10-13T10:54:06.363Z,98475.88
2022-10-13T10:56:44.559Z,98466.63
2022-10-13T10:59:25.857Z,98463.69
2022-10-13T11:02:08.553Z,98458.72
2022-10-13T11:04:47.246Z,98439.94
2022-10-13T11:07:22.815Z,98449.75
2022-10-13T11:09:53.928Z,98440.81
2022-10-13T11:12:20.781Z,98439.50
2022-10-13T11:15:08.373Z,98440.66
2022-10-13T11:17:37.846Z,98435.88
2022-10-13T11:20:25.331Z,98446.72
2022-10-13T11:22:57.489Z,98452.16
2022-10-13T11:25:42.292Z,98452.72
2022-10-13T11:28:20.941Z,98447.25
2022-10-13T11:30:51.173Z,98438.94
2022-10-13T11:33:37.009Z,98448.81
2022-10-13T11:36:41.224Z,98455.56
2022-10-13T11:39:27.480Z,98464.63
2022-10-13T11:42:09.511Z,98470.16
2022-10-13T11:44:57.477Z,98446.94
2022-10-13T11:47:33.667Z,98457.44
2022-10-13T11:50:21.373Z,98400.69
2022-10-13T11:53:07.742Z,98433.38
2022-10-13T11:55:39.583Z,98437.59
2022-10-13T11:58:10.508Z,98426.22
2022-10-13T12:00:40.813Z,98421.66
2022-10-13T12:03:24.532Z,98416.72
2022-10-13T12:05:55.529Z,98404.91
2022-10-13T12:08:22.309Z,98395.66
2022-10-13T12:10:57.467Z,98398.13
2022-10-13T12:13:27.622Z,98375.84
2022-10-13T12:16:00.683Z,98356.81
2022-10-13T12:18:34.386Z,98413.25
2022-10-13T12:21:04.184Z,98367.56
2022-10-13T12:23:33.018Z,98367.84
2022-10-13T12:26:00.222Z,98407.41
2022-10-13T12:28:30.938Z,98413.00
2022-10-13T12:30:59.865Z,98349.00
2022-10-13T12:33:35.700Z,98375.59
2022-10-13T12:36:19.011Z,98400.31
2022-10-13T12:38:51.276Z,98367.56
2022-10-13T12:41:26.461Z,98359.91
2022-10-13T12:43:54.277Z,98397.06
2022-10-13T12:46:42.341Z,98406.47
2022-10-13T12:51:50.737Z,98392.75
2022-10-13T12:54:21.153Z,98385.50
2022-10-13T12:56:55.410Z,98323.81
2022-10-13T12:59:24.169Z,98359.50
2022-10-13T13:01:57.212Z,98314.16
2022-10-13T13:04:32.092Z,98383.56
2022-10-13T13:07:05.204Z,98376.59
2022-10-13T13:09:38.826Z,98361.53
2022-10-13T13:12:11.439Z,98363.09
2022-10-13T13:14:39.055Z,98367.97
2022-10-13T13:17:38.842Z,98354.22
2022-10-13T13:20:29.981Z,98343.19
2022-10-13T13:22:57.173Z,98351.22
2022-10-13T13:25:24.212Z,98291.16
2022-10-13T13:27:52.660Z,98363.75
2022-10-13T13:30:22.263Z,98360.00
2022-10-13T13:32:51.513Z,98340.97
2022-10-13T13:35:18.867Z,98345.47
2022-10-13T13:37:51.161Z,98353.03
2022-10-13T13:40:24.237Z,98316.34
2022-10-13T13:42:51.280Z,98336.91
2022-10-13T13:45:21.027Z,98356.81
2022-10-13T13:47:49.452Z,98264.41
2022-10-13T13:50:23.683Z,98230.88
2022-10-13T13:52:56.403Z,98319.19
2022-10-13T13:55:26.943Z,98370.66
2022-10-13T13:57:53.989Z,98316.44
2022-10-13T14:00:21.162Z,98367.59
2022-10-13T14:02:54.461Z,98344.56
2022-10-13T14:05:20.897Z,98341.88
2022-10-13T14:07:47.525Z,98354.81
2022-10-13T14:10:14.785Z,98326.19
2022-10-13T14:12:41.323Z,98334.31
2022-10-13T14:15:09.164Z,98363.75
2022-10-13T14:17:35.738Z,98295.22
2022-10-13T14:20:02.558Z,98314.47
2022-10-13T14:22:29.139Z,98304.75
2022-10-13T14:24:55.924Z,98333.03
2022-10-13T14:27:23.181Z,98305.72
2022-10-13T14:29:51.312Z,98360.09
2022-10-13T14:32:19.360Z,98359.03
2022-10-13T14:34:46.624Z,98347.16
2022-10-13T14:37:14.126Z,98346.09
2022-10-13T14:39:40.968Z,98341.97
2022-10-13T14:42:07.704Z,98348.78
2022-10-13T14:44:34.131Z,98354.13
2022-10-13T14:47:00.872Z,98356.25
2022-10-13T14:49:27.658Z,98330.75
2022-10-13T14:51:54.490Z,98319.28
2022-10-13T14:54:21.740Z,98327.63
2022-10-13T14:56:48.430Z,98343.66
2022-10-13T14:59:15.520Z,98360.81
2022-10-13T15:01:44.042Z,98371.69
2022-10-13T15:04:11.174Z,98367.63
2022-10-13T15:06:41.762Z,98360.47
2022-10-13T15:11:36.334Z,98248.53
2022-10-13T15:14:03.400Z,98295.94
2022-10-13T15:16:33.807Z,98353.31
2022-10-13T15:19:01.590Z,98316.19
2022-10-13T15:21:28.263Z,98300.78
2022-10-13T15:23:55.942Z,98233.75
2022-10-13T15:26:22.978Z,98081.81
2022-10-13T15:28:52.080Z,98205.31
2022-10-13T15:31:21.088Z,98329.38
2022-10-13T15:33:51.648Z,98352.97
2022-10-13T15:36:22.107Z,98352.41
2022-10-13T15:38:48.858Z,98308.16
2022-10-13T15:41:16.194Z,98355.56
2022-10-13T15:43:43.113Z,98222.53
2022-10-13T15:46:22.717Z,98320.00
2022-10-13T15:48:51.393Z,98347.06
2022-10-13T15:51:21.970Z,98338.56
2022-10-13T15:53:51.182Z,98217.66
2022-10-13T15:56:18.232Z,98342.53
2022-10-13T15:58:45.996Z,98324.31
2022-10-13T16:01:14.602Z,98310.47
2022-10-13T16:03:41.685Z,98351.78
2022-10-13T16:06:11.716Z,98304.69
2022-10-13T16:08:44.353Z,98176.56
2022-10-13T16:11:13.655Z,98315.41
2022-10-13T16:13:42.086Z,98174.50
2022-10-13T16:16:08.861Z,98245.25
2022-10-13T16:18:37.361Z,98274.25
2022-10-13T16:21:19.571Z,98342.50
2022-10-13T16:23:47.822Z,98334.38
2022-10-13T16:26:15.284Z,98284.88
2022-10-13T16:28:42.199Z,98301.03
2022-10-13T16:31:14.300Z,98299.97
2022-10-13T16:33:44.769Z,98338.94
2022-10-13T16:36:15.154Z,98272.47
2022-10-13T16:38:42.562Z,98317.06
2022-10-13T16:41:13.186Z,98325.06
2022-10-13T16:43:39.796Z,98310.56
2022-10-13T16:46:08.295Z,98326.94
2022-10-13T16:48:35.729Z,98313.47
2022-10-13T16:51:12.428Z,98308.00
2022-10-13T16:53:39.346Z,98224.72
2022-10-13T16:56:07.890Z,98286.44
2022-10-13T16:58:35.008Z,98274.94
2022-10-13T17:01:08.747Z,98288.19
2022-10-13T17:03:36.753Z,98333.63
2022-10-13T17:06:03.912Z,98242.44
2022-10-13T17:08:31.019Z,98317.50
2022-10-13T17:11:00.375Z,98323.19
2022-10-13T17:13:28.118Z,98335.84
2022-10-13T17:15:56.762Z,98330.84
2022-10-13T17:18:25.090Z,98158.53
2022-10-13T17:21:06.449Z,98328.50
2022-10-13T17:23:33.652Z,98318.03
2022-10-13T17:26:02.957Z,98268.91
2022-10-13T17:28:32.382Z,98314.13
2022-10-13T17:31:05.175Z,98325.16
2022-10-13T17:33:35.068Z,98318.28
2022-10-13T17:36:05.152Z,98258.59
2022-10-13T17:38:34.143Z,98337.84
2022-10-13T17:41:03.206Z,98334.75
2022-10-13T17:43:32.329Z,98067.75
2022-10-13T17:46:35.194Z,98330.69
2022-10-13T17:49:00.476Z,98318.56
2022-10-13T17:51:28.417Z,98306.03
2022-10-13T17:53:58.092Z,98347.66
2022-10-13T17:56:25.040Z,98292.78
2022-10-13T17:58:52.316Z,98220.59
2022-10-13T18:01:21.635Z,98336.13
2022-10-13T18:03:54.308Z,98336.50
2022-10-13T18:06:37.679Z,98314.66
2022-10-13T18:09:06.216Z,98332.63
2022-10-13T18:11:33.776Z,98326.38
2022-10-13T18:14:00.430Z,98338.25
2022-10-13T18:16:27.246Z,98331.38
2022-10-13T18:18:54.276Z,98324.38
2022-10-13T18:21:26.457Z,98273.72
2022-10-13T18:23:55.743Z,98224.75
2022-10-13T18:26:24.990Z,98320.31
2022-10-13T18:28:52.872Z,98334.31
2022-10-13T18:31:28.059Z,98272.00
2022-10-13T18:34:03.666Z,98341.03
2022-10-13T18:36:33.464Z,98329.88
2022-10-13T18:39:12.159Z,98290.69
2022-10-13T18:41:40.174Z,98325.22
2022-10-13T18:44:07.377Z,98296.97
2022-10-13T18:46:35.731Z,98323.13
2022-10-13T18:49:04.947Z,98329.06
2022-10-13T18:51:36.152Z,98267.78
2022-10-13T18:54:05.229Z,98279.56
2022-10-13T18:56:32.960Z,98341.03
2022-10-13T18:59:04.171Z,98336.59
2022-10-13T19:01:34.058Z,98338.94
2022-10-13T19:04:02.273Z,98320.31
2022-10-13T19:06:31.436Z,98338.69
2022-10-13T19:09:05.338Z,98338.13
2022-10-13T19:11:36.457Z,98309.44
2022-10-13T19:14:12.562Z,98324.09
2022-10-13T19:16:42.255Z,98356.75
2022-10-13T19:19:09.267Z,98346.72
2022-10-13T19:21:37.529Z,98321.72
2022-10-13T19:24:05.186Z,98337.19
2022-10-13T19:26:35.270Z,98337.09
2022-10-13T19:29:06.929Z,98346.97
2022-10-13T19:31:35.381Z,98232.78
2022-10-13T19:34:08.224Z,98344.06
2022-10-13T19:36:43.358Z,98343.47
2022-10-13T19:39:17.026Z,98354.28
2022-10-13T19:41:45.735Z,98323.00
2022-10-13T19:44:13.543Z,98332.44
2022-10-13T19:46:43.942Z,98348.25
2022-10-13T19:49:13.609Z,98351.97
2022-10-13T19:51:45.117Z,98321.50
2022-10-13T19:54:12.565Z,98292.31
2022-10-13T19:56:46.135Z,98363.25
2022-10-13T19:59:14.389Z,98310.94
2022-10-13T20:01:41.184Z,98298.28
2022-10-13T20:04:14.533Z,98351.63
2022-10-13T20:06:43.486Z,98350.25
2022-10-13T20:09:10.238Z,98316.53
2022-10-13T20:11:37.838Z,98295.47
2022-10-13T20:14:04.979Z,98275.44
2022-10-13T20:16:31.465Z,98329.75
2022-10-13T20:19:00.009Z,98344.06
2022-10-13T20:21:28.608Z,98318.25
2022-10-13T20:23:55.891Z,98344.06
2022-10-13T20:26:24.466Z,98342.81
2022-10-13T20:28:52.394Z,98347.78
2022-10-13T20:31:21.935Z,98327.53
2022-10-13T20:33:52.534Z,98299.31
2022-10-13T20:36:22.129Z,98345.94
2022-10-13T20:38:49.313Z,98330.59
2022-10-13T20:41:27.030Z,98346.75
2022-10-13T20:43:55.549Z,98336.97
2022-10-13T20:46:23.912Z,98337.78
2022-10-13T20:49:09.831Z,98308.59
2022-10-13T20:51:39.615Z,98323.16
2022-10-13T20:54:12.472Z,98323.25
2022-10-13T20:56:39.989Z,98341.53
2022-10-13T20:59:09.037Z,98346.88
2022-10-13T21:01:37.098Z,98356.75
2022-10-13T21:04:05.166Z,98348.03
2022-10-13T21:06:31.693Z,98349.06
2022-10-13T21:09:00.444Z,98347.78
2022-10-13T21:11:27.350Z,98215.13
2022-10-13T21:13:54.062Z,98317.75
2022-10-13T21:16:23.657Z,98327.06
2022-10-13T21:18:53.116Z,98343.59
2022-10-13T21:21:22.901Z,98283.78
2022-10-13T21:23:53.817Z,98354.31
2022-10-13T21:26:22.578Z,98352.44
2022-10-13T21:28:50.073Z,98355.34
2022-10-13T21:31:20.910Z,98336.38
2022-10-13T21:33:48.086Z,98335.34
2022-10-13T21:36:20.747Z,98357.34
2022-10-13T21:38:49.753Z,98349.31
2022-10-13T21:41:18.114Z,98317.75
2022-10-13T21:43:44.687Z,98273.09
2022-10-13T21:46:17.519Z,98360.22
2022-10-13T21:48:45.581Z,98328.84
2022-10-13T21:51:14.193Z,98334.19
2022-10-13T21:53:41.489Z,98293.78
2022-10-13T21:56:09.942Z,98354.06
2022-10-13T21:58:36.678Z,98355.13
2022-10-13T22:01:06.588Z,98350.69
2022-10-13T22:03:34.767Z,98301.22
2022-10-13T22:06:15.907Z,98353.72
2022-10-13T22:08:46.686Z,98343.59
2022-10-13T22:11:26.058Z,98334.13
2022-10-13T22:13:52.960Z,98353.13
2022-10-13T22:16:24.476Z,98346.75
2022-10-13T22:18:52.737Z,98324.50
2022-10-13T22:21:22.633Z,98351.03
2022-10-13T22:23:49.657Z,98333.09
2022-10-13T22:26:18.701Z,98322.28
2022-10-13T22:28:48.079Z,98349.00
2022-10-13T22:31:15.049Z,98352.66
2022-10-13T22:33:45.416Z,98331.81
2022-10-13T22:36:20.353Z,98341.81
2022-10-13T22:38:50.104Z,98273.56
2022-10-13T22:41:20.013Z,98340.66
2022-10-13T22:43:54.825Z,98325.66
2022-10-13T22:46:25.696Z,98341.97
2022-10-13T22:48:53.240Z,98342.44
2022-10-13T22:51:21.569Z,98316.81
2022-10-13T22:53:49.332Z,98341.25
2022-10-13T22:56:22.729Z,98342.84
2022-10-13T22:58:59.045Z,98350.75
2022-10-13T23:01:27.064Z,98300.75
2022-10-13T23:03:55.963Z,98337.25
2022-10-13T23:06:25.025Z,98340.06
2022-10-13T23:08:51.694Z,98310.03
2022-10-13T23:11:19.273Z,98333.31
2022-10-13T23:13:46.685Z,98330.63
2022-10-13T23:16:20.754Z,98272.50
2022-10-13T23:18:47.973Z,98299.34
2022-10-13T23:21:26.874Z,98318.41
2022-10-13T23:24:01.903Z,98323.31
2022-10-13T23:26:30.303Z,98292.84
2022-10-13T23:28:57.700Z,98317.63
2022-10-13T23:31:25.944Z,98296.53
2022-10-13T23:33:52.994Z,98270.16
2022-10-13T23:36:22.566Z,98296.53
2022-10-13T23:38:55.022Z,98284.56
2022-10-13T23:41:21.938Z,98214.00
2022-10-13T23:43:48.432Z,98327.47
2022-10-13T23:46:14.985Z,98280.75
2022-10-13T23:48:41.770Z,98314.78
2022-10-13T23:51:12.440Z,98317.84
2022-10-13T23:53:39.461Z,98251.44
2022-10-13T23:56:11.018Z,98274.34
2022-10-13T23:58:43.040Z,98316.34
